Ana Sayfa
METAR-TAF:

METAR-TAF

Havaalanları :

Penn Valley Airport

Selinsgrove, Pensilvanya, Amerika Birleşik Devletleri

Enlem: 40-49-09N, Boylam: 076-51-58W, yükseklik: 137 m

Güncel hava durumu gözlemi

Rapor saat 17:53 UTC de 22 dakika önce yapıldı.
Rüzgar güneybatıdan 4 kt
Sıcaklık 12°C
Nem 82%
Basınç 1010 hPa
Görüş mesafesi: 16.1 km
5500 ft yükseklikte parçalı bulutlu
7000 ft yükseklikte çok bulutlu

METAR: KSEG 101753Z AUTO 22004KT 10SM SCT055 OVC070 12/09 A2982 RMK AO2 RAE02B06E27 SLP098 P0001 60011 T01170094 10117 20089 51008

Saat: 13:15 (18:15 UTC)


TAF: eksik

4.000'den fazla havaalanı için hava durumu gözlemleri ve tahminleri (METAR ve TAF raporları).

Kullanılabilir istasyonlar harita üzerinde sarı ve kırmızı noktalarla gösterilir.

İstasyonun adını görmek için fareyi noktanın üzerinde gezdirin.

Sonrasında hava gözlem ve tahminlerini görmek için tıklayın.

Haritayı değiştirmek için: yaklaştırmak için siyah artı işaretli yeşil düğmeye ve uzaklaştırmak için de eksi işaretli düğmeye hızla tıklayın; bitişik haritalar için yeşil okları kullanın.


METAR-TAF: